sensor_id;sensor_type;location;lat;lon;timestamp;pressure;altitude;pressure_sealevel;temperature;humidity
29839;BME280;18669;53.356;-1.464;2023-01-25T00:01:58;102553.75;;;6.63;100.00
29839;BME280;18669;53.356;-1.464;2023-01-25T00:04:24;102549.19;;;6.56;100.00
29839;BME280;18669;53.356;-1.464;2023-01-25T00:06:50;102543.72;;;6.47;100.00
29839;BME280;18669;53.356;-1.464;2023-01-25T00:09:18;102538.38;;;6.42;100.00
29839;BME280;18669;53.356;-1.464;2023-01-25T00:11:45;102542.56;;;6.37;100.00
29839;BME280;18669;53.356;-1.464;2023-01-25T00:14:12;102538.94;;;6.32;100.00
29839;BME280;18669;53.356;-1.464;2023-01-25T00:16:38;102537.91;;;6.25;100.00
29839;BME280;18669;53.356;-1.464;2023-01-25T00:19:06;102527.97;;;6.13;100.00
29839;BME280;18669;53.356;-1.464;2023-01-25T00:21:32;102536.97;;;5.94;100.00
29839;BME280;18669;53.356;-1.464;2023-01-25T00:24:02;102527.13;;;5.85;100.00
29839;BME280;18669;53.356;-1.464;2023-01-25T00:26:29;102529.59;;;5.79;100.00
29839;BME280;18669;53.356;-1.464;2023-01-25T00:28:55;102530.03;;;5.65;100.00
29839;BME280;18669;53.356;-1.464;2023-01-25T00:31:49;102526.59;;;5.66;100.00
29839;BME280;18669;53.356;-1.464;2023-01-25T00:36:56;102517.75;;;5.34;100.00
29839;BME280;18669;53.356;-1.464;2023-01-25T00:39:24;102524.47;;;5.26;100.00
29839;BME280;18669;53.356;-1.464;2023-01-25T00:41:50;102524.94;;;5.14;100.00
29839;BME280;18669;53.356;-1.464;2023-01-25T00:44:16;102517.94;;;5.13;100.00
29839;BME280;18669;53.356;-1.464;2023-01-25T00:46:43;102532.19;;;4.97;100.00
29839;BME280;18669;53.356;-1.464;2023-01-25T00:49:25;102521.09;;;5.02;100.00
29839;BME280;18669;53.356;-1.464;2023-01-25T00:51:52;102519.53;;;4.82;100.00
29839;BME280;18669;53.356;-1.464;2023-01-25T00:54:19;102530.53;;;4.73;100.00
29839;BME280;18669;53.356;-1.464;2023-01-25T00:56:45;102522.34;;;4.88;100.00
29839;BME280;18669;53.356;-1.464;2023-01-25T00:59:11;102521.56;;;4.65;100.00
29839;BME280;18669;53.356;-1.464;2023-01-25T01:01:40;102523.97;;;4.58;100.00
29839;BME280;18669;53.356;-1.464;2023-01-25T01:04:06;102521.50;;;4.37;100.00
29839;BME280;18669;53.356;-1.464;2023-01-25T01:06:38;102520.97;;;4.47;100.00
29839;BME280;18669;53.356;-1.464;2023-01-25T01:09:06;102520.03;;;4.45;100.00
29839;BME280;18669;53.356;-1.464;2023-01-25T01:11:33;102513.69;;;4.37;100.00
29839;BME280;18669;53.356;-1.464;2023-01-25T01:13:59;102504.75;;;4.30;100.00
29839;BME280;18669;53.356;-1.464;2023-01-25T01:16:26;102500.38;;;4.29;100.00
29839;BME280;18669;53.356;-1.464;2023-01-25T01:18:52;102503.69;;;4.25;100.00
29839;BME280;18669;53.356;-1.464;2023-01-25T01:21:18;102497.34;;;4.17;100.00
29839;BME280;18669;53.356;-1.464;2023-01-25T01:23:45;102492.63;;;4.07;100.00
29839;BME280;18669;53.356;-1.464;2023-01-25T01:26:12;102493.44;;;4.06;100.00
29839;BME280;18669;53.356;-1.464;2023-01-25T01:28:40;102495.91;;;4.01;100.00
29839;BME280;18669;53.356;-1.464;2023-01-25T01:31:15;102497.94;;;4.10;100.00
29839;BME280;18669;53.356;-1.464;2023-01-25T01:33:41;102501.50;;;3.89;100.00
29839;BME280;18669;53.356;-1.464;2023-01-25T01:36:09;102492.34;;;3.76;100.00
29839;BME280;18669;53.356;-1.464;2023-01-25T01:38:36;102491.38;;;3.72;100.00
29839;BME280;18669;53.356;-1.464;2023-01-25T01:41:02;102490.38;;;3.69;100.00
29839;BME280;18669;53.356;-1.464;2023-01-25T01:43:29;102486.75;;;3.65;100.00
29839;BME280;18669;53.356;-1.464;2023-01-25T01:46:00;102475.63;;;3.69;100.00
29839;BME280;18669;53.356;-1.464;2023-01-25T01:53:59;102480.22;;;3.54;100.00
29839;BME280;18669;53.356;-1.464;2023-01-25T01:56:39;102480.06;;;3.49;100.00
29839;BME280;18669;53.356;-1.464;2023-01-25T01:59:07;102473.56;;;3.38;100.00
29839;BME280;18669;53.356;-1.464;2023-01-25T02:01:33;102468.88;;;3.29;100.00
29839;BME280;18669;53.356;-1.464;2023-01-25T02:04:01;102469.97;;;3.34;100.00
29839;BME280;18669;53.356;-1.464;2023-01-25T02:09:04;102474.03;;;3.27;100.00
29839;BME280;18669;53.356;-1.464;2023-01-25T02:11:31;102470.75;;;3.32;100.00
29839;BME280;18669;53.356;-1.464;2023-01-25T02:13:58;102475.16;;;3.34;100.00
29839;BME280;18669;53.356;-1.464;2023-01-25T02:16:26;102476.97;;;3.37;100.00
29839;BME280;18669;53.356;-1.464;2023-01-25T02:18:54;102473.13;;;3.27;100.00
29839;BME280;18669;53.356;-1.464;2023-01-25T02:21:23;102471.31;;;3.24;100.00
29839;BME280;18669;53.356;-1.464;2023-01-25T02:26:54;102466.28;;;3.06;100.00
29839;BME280;18669;53.356;-1.464;2023-01-25T02:29:22;102461.69;;;3.01;100.00
29839;BME280;18669;53.356;-1.464;2023-01-25T02:31:49;102461.59;;;2.97;100.00
29839;BME280;18669;53.356;-1.464;2023-01-25T02:34:17;102459.88;;;2.98;100.00
29839;BME280;18669;53.356;-1.464;2023-01-25T02:36:43;102460.56;;;2.94;100.00
29839;BME280;18669;53.356;-1.464;2023-01-25T02:39:13;102449.88;;;3.09;100.00
29839;BME280;18669;53.356;-1.464;2023-01-25T02:42:01;102452.63;;;2.91;100.00
29839;BME280;18669;53.356;-1.464;2023-01-25T02:44:30;102452.84;;;2.95;100.00
29839;BME280;18669;53.356;-1.464;2023-01-25T02:47:15;102449.09;;;2.89;100.00
29839;BME280;18669;53.356;-1.464;2023-01-25T02:49:41;102447.78;;;2.98;100.00
29839;BME280;18669;53.356;-1.464;2023-01-25T02:52:08;102449.53;;;3.00;100.00
29839;BME280;18669;53.356;-1.464;2023-01-25T02:54:35;102452.16;;;3.00;100.00
29839;BME280;18669;53.356;-1.464;2023-01-25T02:57:01;102443.56;;;3.02;100.00
29839;BME280;18669;53.356;-1.464;2023-01-25T02:59:28;102448.78;;;3.02;100.00
29839;BME280;18669;53.356;-1.464;2023-01-25T03:01:54;102454.84;;;3.03;100.00
29839;BME280;18669;53.356;-1.464;2023-01-25T03:04:21;102443.97;;;2.90;100.00
29839;BME280;18669;53.356;-1.464;2023-01-25T03:06:47;102453.41;;;3.09;100.00
29839;BME280;18669;53.356;-1.464;2023-01-25T03:09:13;102455.56;;;2.98;100.00
29839;BME280;18669;53.356;-1.464;2023-01-25T03:11:39;102450.88;;;2.90;100.00
29839;BME280;18669;53.356;-1.464;2023-01-25T03:14:06;102454.63;;;2.96;100.00
29839;BME280;18669;53.356;-1.464;2023-01-25T03:16:32;102453.16;;;3.03;100.00
29839;BME280;18669;53.356;-1.464;2023-01-25T03:18:58;102453.41;;;3.09;100.00
29839;BME280;18669;53.356;-1.464;2023-01-25T03:21:24;102458.47;;;3.06;100.00
29839;BME280;18669;53.356;-1.464;2023-01-25T03:23:58;102447.66;;;3.18;100.00
29839;BME280;18669;53.356;-1.464;2023-01-25T03:26:26;102445.94;;;3.19;100.00
29839;BME280;18669;53.356;-1.464;2023-01-25T03:28:53;102447.38;;;3.10;100.00
29839;BME280;18669;53.356;-1.464;2023-01-25T03:31:19;102439.28;;;3.25;100.00
29839;BME280;18669;53.356;-1.464;2023-01-25T03:33:45;102439.69;;;3.13;100.00
29839;BME280;18669;53.356;-1.464;2023-01-25T03:36:11;102439.47;;;3.09;100.00
29839;BME280;18669;53.356;-1.464;2023-01-25T03:38:37;102447.91;;;3.24;100.00
29839;BME280;18669;53.356;-1.464;2023-01-25T03:41:04;102436.38;;;3.40;100.00
29839;BME280;18669;53.356;-1.464;2023-01-25T03:43:30;102426.91;;;3.42;100.00
29839;BME280;18669;53.356;-1.464;2023-01-25T03:46:00;102432.16;;;3.44;100.00
29839;BME280;18669;53.356;-1.464;2023-01-25T03:48:28;102427.06;;;3.47;100.00
29839;BME280;18669;53.356;-1.464;2023-01-25T03:50:57;102424.84;;;3.56;100.00
29839;BME280;18669;53.356;-1.464;2023-01-25T03:53:27;102424.47;;;3.47;100.00
29839;BME280;18669;53.356;-1.464;2023-01-25T03:56:06;102424.56;;;3.49;100.00
29839;BME280;18669;53.356;-1.464;2023-01-25T03:58:38;102426.09;;;3.43;100.00
29839;BME280;18669;53.356;-1.464;2023-01-25T04:01:09;102415.03;;;3.26;100.00
29839;BME280;18669;53.356;-1.464;2023-01-25T04:03:39;102411.25;;;3.18;100.00
29839;BME280;18669;53.356;-1.464;2023-01-25T04:06:07;102417.94;;;3.11;100.00
29839;BME280;18669;53.356;-1.464;2023-01-25T04:08:36;102415.34;;;3.11;100.00
29839;BME280;18669;53.356;-1.464;2023-01-25T04:11:07;102413.72;;;3.15;100.00
29839;BME280;18669;53.356;-1.464;2023-01-25T04:13:33;102409.31;;;3.12;100.00
29839;BME280;18669;53.356;-1.464;2023-01-25T04:16:05;102414.72;;;3.19;100.00
29839;BME280;18669;53.356;-1.464;2023-01-25T04:18:31;102409.09;;;3.08;100.00
29839;BME280;18669;53.356;-1.464;2023-01-25T04:20:58;102407.41;;;3.08;100.00
29839;BME280;18669;53.356;-1.464;2023-01-25T04:23:25;102400.97;;;3.21;100.00
29839;BME280;18669;53.356;-1.464;2023-01-25T04:26:00;102394.28;;;3.28;100.00
29839;BME280;18669;53.356;-1.464;2023-01-25T04:28:27;102392.34;;;3.22;100.00
29839;BME280;18669;53.356;-1.464;2023-01-25T04:30:54;102405.25;;;3.21;100.00
29839;BME280;18669;53.356;-1.464;2023-01-25T04:33:21;102397.19;;;3.13;100.00
29839;BME280;18669;53.356;-1.464;2023-01-25T04:35:48;102384.72;;;3.04;100.00
29839;BME280;18669;53.356;-1.464;2023-01-25T04:38:14;102390.66;;;3.02;100.00
29839;BME280;18669;53.356;-1.464;2023-01-25T04:40:41;102385.69;;;2.85;100.00
29839;BME280;18669;53.356;-1.464;2023-01-25T04:43:07;102390.72;;;2.80;100.00
29839;BME280;18669;53.356;-1.464;2023-01-25T04:45:34;102391.44;;;2.76;100.00
29839;BME280;18669;53.356;-1.464;2023-01-25T04:48:03;102383.34;;;2.91;100.00
29839;BME280;18669;53.356;-1.464;2023-01-25T04:50:29;102372.63;;;2.83;100.00
29839;BME280;18669;53.356;-1.464;2023-01-25T04:52:55;102379.75;;;3.10;100.00
29839;BME280;18669;53.356;-1.464;2023-01-25T04:55:22;102370.09;;;2.85;100.00
29839;BME280;18669;53.356;-1.464;2023-01-25T04:57:48;102362.97;;;3.02;100.00
29839;BME280;18669;53.356;-1.464;2023-01-25T05:00:16;102360.69;;;2.89;100.00
29839;BME280;18669;53.356;-1.464;2023-01-25T05:02:42;102351.50;;;2.74;100.00
29839;BME280;18669;53.356;-1.464;2023-01-25T05:05:09;102358.63;;;2.80;100.00
29839;BME280;18669;53.356;-1.464;2023-01-25T05:07:35;102350.66;;;2.75;100.00
29839;BME280;18669;53.356;-1.464;2023-01-25T05:10:02;102346.03;;;2.68;100.00
29839;BME280;18669;53.356;-1.464;2023-01-25T05:12:28;102335.56;;;2.66;100.00
29839;BME280;18669;53.356;-1.464;2023-01-25T05:14:54;102338.28;;;2.69;100.00
29839;BME280;18669;53.356;-1.464;2023-01-25T05:17:20;102338.00;;;2.62;100.00
29839;BME280;18669;53.356;-1.464;2023-01-25T05:19:46;102331.72;;;2.57;100.00
29839;BME280;18669;53.356;-1.464;2023-01-25T05:22:14;102337.25;;;2.64;100.00
29839;BME280;18669;53.356;-1.464;2023-01-25T05:24:40;102332.75;;;2.60;100.00
29839;BME280;18669;53.356;-1.464;2023-01-25T05:27:09;102327.34;;;2.56;100.00
29839;BME280;18669;53.356;-1.464;2023-01-25T05:29:37;102331.72;;;2.57;100.00
29839;BME280;18669;53.356;-1.464;2023-01-25T05:32:05;102327.59;;;2.62;100.00
29839;BME280;18669;53.356;-1.464;2023-01-25T05:34:32;102330.72;;;2.53;100.00
29839;BME280;18669;53.356;-1.464;2023-01-25T05:36:59;102328.13;;;2.53;100.00
29839;BME280;18669;53.356;-1.464;2023-01-25T05:39:26;102325.81;;;2.61;100.00
29839;BME280;18669;53.356;-1.464;2023-01-25T05:41:52;102318.47;;;2.50;100.00
29839;BME280;18669;53.356;-1.464;2023-01-25T05:44:18;102326.53;;;2.57;100.00
29839;BME280;18669;53.356;-1.464;2023-01-25T05:46:45;102316.78;;;2.51;100.00
29839;BME280;18669;53.356;-1.464;2023-01-25T05:49:11;102311.59;;;2.51;100.00
29839;BME280;18669;53.356;-1.464;2023-01-25T05:51:38;102307.63;;;2.61;100.00
29839;BME280;18669;53.356;-1.464;2023-01-25T05:54:05;102320.47;;;2.56;100.00
29839;BME280;18669;53.356;-1.464;2023-01-25T05:56:32;102314.75;;;2.44;100.00
29839;BME280;18669;53.356;-1.464;2023-01-25T05:59:00;102320.25;;;2.51;100.00
29839;BME280;18669;53.356;-1.464;2023-01-25T06:01:27;102324.13;;;2.61;100.00
29839;BME280;18669;53.356;-1.464;2023-01-25T06:03:54;102327.22;;;2.52;100.00
29839;BME280;18669;53.356;-1.464;2023-01-25T06:06:20;102320.78;;;2.43;100.00
29839;BME280;18669;53.356;-1.464;2023-01-25T06:08:47;102313.00;;;2.43;100.00
29839;BME280;18669;53.356;-1.464;2023-01-25T06:11:16;102322.13;;;2.54;100.00
29839;BME280;18669;53.356;-1.464;2023-01-25T06:13:43;102313.16;;;2.47;100.00
29839;BME280;18669;53.356;-1.464;2023-01-25T06:16:10;102306.97;;;2.44;100.00
29839;BME280;18669;53.356;-1.464;2023-01-25T06:18:36;102318.84;;;2.37;100.00
29839;BME280;18669;53.356;-1.464;2023-01-25T06:21:03;102314.59;;;2.39;100.00
29839;BME280;18669;53.356;-1.464;2023-01-25T06:23:30;102309.69;;;2.47;100.00
29839;BME280;18669;53.356;-1.464;2023-01-25T06:25:57;102312.41;;;2.50;100.00
29839;BME280;18669;53.356;-1.464;2023-01-25T06:28:24;102302.59;;;2.43;100.00
29839;BME280;18669;53.356;-1.464;2023-01-25T06:30:51;102300.13;;;2.46;100.00
29839;BME280;18669;53.356;-1.464;2023-01-25T06:33:17;102306.28;;;2.48;100.00
29839;BME280;18669;53.356;-1.464;2023-01-25T06:35:43;102309.00;;;2.51;100.00
29839;BME280;18669;53.356;-1.464;2023-01-25T06:38:09;102305.38;;;2.47;100.00
29839;BME280;18669;53.356;-1.464;2023-01-25T06:40:35;102296.84;;;2.50;100.00
29839;BME280;18669;53.356;-1.464;2023-01-25T06:43:08;102301.91;;;2.69;100.00
29839;BME280;18669;53.356;-1.464;2023-01-25T06:45:35;102291.75;;;2.53;100.00
29839;BME280;18669;53.356;-1.464;2023-01-25T06:48:01;102293.53;;;2.54;100.00
29839;BME280;18669;53.356;-1.464;2023-01-25T06:50:27;102282.34;;;2.57;100.00
29839;BME280;18669;53.356;-1.464;2023-01-25T06:52:53;102285.06;;;2.60;100.00
29839;BME280;18669;53.356;-1.464;2023-01-25T06:55:20;102279.88;;;2.60;100.00
29839;BME280;18669;53.356;-1.464;2023-01-25T06:57:47;102273.13;;;2.63;100.00
29839;BME280;18669;53.356;-1.464;2023-01-25T07:00:15;102275.41;;;2.78;100.00
29839;BME280;18669;53.356;-1.464;2023-01-25T07:02:41;102269.72;;;2.66;100.00
29839;BME280;18669;53.356;-1.464;2023-01-25T07:05:08;102275.16;;;2.72;100.00
29839;BME280;18669;53.356;-1.464;2023-01-25T07:07:34;102266.78;;;2.79;100.00
29839;BME280;18669;53.356;-1.464;2023-01-25T07:10:00;102266.28;;;2.90;100.00
29839;BME280;18669;53.356;-1.464;2023-01-25T07:12:30;102270.63;;;2.89;100.00
29839;BME280;18669;53.356;-1.464;2023-01-25T07:14:57;102264.22;;;2.81;100.00
29839;BME280;18669;53.356;-1.464;2023-01-25T07:17:23;102263.44;;;2.83;100.00
29839;BME280;18669;53.356;-1.464;2023-01-25T07:19:50;102265.28;;;2.86;100.00
29839;BME280;18669;53.356;-1.464;2023-01-25T07:22:16;102272.75;;;3.00;100.00
29839;BME280;18669;53.356;-1.464;2023-01-25T07:24:42;102264.81;;;2.96;100.00
29839;BME280;18669;53.356;-1.464;2023-01-25T07:27:15;102265.31;;;3.10;100.00
29839;BME280;18669;53.356;-1.464;2023-01-25T07:29:44;102262.13;;;3.18;100.00
29839;BME280;18669;53.356;-1.464;2023-01-25T07:32:11;102252.94;;;3.27;100.00
29839;BME280;18669;53.356;-1.464;2023-01-25T07:34:38;102240.81;;;3.28;100.00
29839;BME280;18669;53.356;-1.464;2023-01-25T07:37:05;102246.34;;;3.37;100.00
29839;BME280;18669;53.356;-1.464;2023-01-25T07:39:31;102245.66;;;3.43;100.00
29839;BME280;18669;53.356;-1.464;2023-01-25T07:41:57;102246.38;;;3.39;100.00
29839;BME280;18669;53.356;-1.464;2023-01-25T07:44:23;102223.59;;;3.32;100.00
29839;BME280;18669;53.356;-1.464;2023-01-25T07:46:50;102229.81;;;3.37;100.00
29839;BME280;18669;53.356;-1.464;2023-01-25T07:49:18;102229.44;;;3.50;100.00
29839;BME280;18669;53.356;-1.464;2023-01-25T07:51:44;102220.06;;;3.55;100.00
29839;BME280;18669;53.356;-1.464;2023-01-25T07:54:10;102222.88;;;3.62;100.00
29839;BME280;18669;53.356;-1.464;2023-01-25T07:56:37;102221.22;;;3.64;100.00
29839;BME280;18669;53.356;-1.464;2023-01-25T07:59:05;102213.91;;;3.79;100.00
29839;BME280;18669;53.356;-1.464;2023-01-25T08:01:33;102213.81;;;3.76;100.00
29839;BME280;18669;53.356;-1.464;2023-01-25T08:04:02;102213.16;;;3.82;100.00
29839;BME280;18669;53.356;-1.464;2023-01-25T08:06:42;102205.53;;;3.88;100.00
29839;BME280;18669;53.356;-1.464;2023-01-25T08:09:14;102196.19;;;3.95;100.00
29839;BME280;18669;53.356;-1.464;2023-01-25T08:11:45;102192.69;;;3.94;100.00
29839;BME280;18669;53.356;-1.464;2023-01-25T08:14:12;102182.09;;;3.88;100.00
29839;BME280;18669;53.356;-1.464;2023-01-25T08:16:39;102173.91;;;4.03;100.00
29839;BME280;18669;53.356;-1.464;2023-01-25T08:19:05;102162.56;;;4.30;100.00
29839;BME280;18669;53.356;-1.464;2023-01-25T08:21:33;102158.88;;;4.23;100.00
29839;BME280;18669;53.356;-1.464;2023-01-25T08:24:01;102144.34;;;4.31;100.00
29839;BME280;18669;53.356;-1.464;2023-01-25T08:26:28;102138.19;;;4.29;100.00
29839;BME280;18669;53.356;-1.464;2023-01-25T08:28:55;102132.44;;;4.40;100.00
29839;BME280;18669;53.356;-1.464;2023-01-25T08:31:32;102129.38;;;4.55;100.00
29839;BME280;18669;53.356;-1.464;2023-01-25T08:33:59;102126.88;;;4.58;100.00
29839;BME280;18669;53.356;-1.464;2023-01-25T08:36:26;102128.00;;;4.68;100.00
29839;BME280;18669;53.356;-1.464;2023-01-25T08:38:57;102130.91;;;4.78;100.00
29839;BME280;18669;53.356;-1.464;2023-01-25T08:41:25;102133.78;;;4.88;100.00
29839;BME280;18669;53.356;-1.464;2023-01-25T08:43:53;102125.69;;;5.11;100.00
29839;BME280;18669;53.356;-1.464;2023-01-25T08:46:21;102116.47;;;5.23;100.00
29839;BME280;18669;53.356;-1.464;2023-01-25T08:48:47;102114.06;;;5.33;100.00
29839;BME280;18669;53.356;-1.464;2023-01-25T08:51:15;102111.09;;;5.54;100.00
29839;BME280;18669;53.356;-1.464;2023-01-25T08:53:42;102104.41;;;5.65;100.00
29839;BME280;18669;53.356;-1.464;2023-01-25T08:56:10;102110.00;;;5.81;100.00
29839;BME280;18669;53.356;-1.464;2023-01-25T08:58:38;102105.97;;;5.95;100.00
29839;BME280;18669;53.356;-1.464;2023-01-25T09:01:07;102094.06;;;6.07;100.00
29839;BME280;18669;53.356;-1.464;2023-01-25T09:03:35;102083.06;;;6.22;100.00
29839;BME280;18669;53.356;-1.464;2023-01-25T09:06:01;102091.09;;;6.31;100.00
29839;BME280;18669;53.356;-1.464;2023-01-25T09:08:27;102102.63;;;6.42;100.00
29839;BME280;18669;53.356;-1.464;2023-01-25T09:10:53;102090.47;;;6.45;100.00
29839;BME280;18669;53.356;-1.464;2023-01-25T09:13:20;102088.91;;;6.53;100.00
29839;BME280;18669;53.356;-1.464;2023-01-25T09:15:46;102092.63;;;6.64;100.00
29839;BME280;18669;53.356;-1.464;2023-01-25T09:18:12;102082.38;;;6.77;100.00
29839;BME280;18669;53.356;-1.464;2023-01-25T09:20:40;102077.25;;;6.83;100.00
29839;BME280;18669;53.356;-1.464;2023-01-25T09:23:06;102065.50;;;7.10;100.00
29839;BME280;18669;53.356;-1.464;2023-01-25T09:25:32;102062.84;;;7.07;100.00
29839;BME280;18669;53.356;-1.464;2023-01-25T09:27:58;102064.75;;;7.17;100.00
29839;BME280;18669;53.356;-1.464;2023-01-25T09:30:24;102059.63;;;7.25;100.00
29839;BME280;18669;53.356;-1.464;2023-01-25T09:32:50;102034.53;;;7.36;100.00
29839;BME280;18669;53.356;-1.464;2023-01-25T09:35:16;102037.34;;;7.49;100.00
29839;BME280;18669;53.356;-1.464;2023-01-25T09:37:42;102028.97;;;7.73;100.00
29839;BME280;18669;53.356;-1.464;2023-01-25T09:40:17;102025.50;;;7.75;100.00
29839;BME280;18669;53.356;-1.464;2023-01-25T09:45:32;102020.50;;;7.94;100.00
29839;BME280;18669;53.356;-1.464;2023-01-25T09:53:40;101991.72;;;8.77;100.00
29839;BME280;18669;53.356;-1.464;2023-01-25T09:56:24;101986.81;;;9.27;100.00
29839;BME280;18669;53.356;-1.464;2023-01-25T09:58:56;101992.25;;;9.58;100.00
29839;BME280;18669;53.356;-1.464;2023-01-25T10:01:49;102002.88;;;9.78;100.00
29839;BME280;18669;53.356;-1.464;2023-01-25T10:04:34;102009.06;;;9.94;100.00
29839;BME280;18669;53.356;-1.464;2023-01-25T10:07:56;102008.28;;;10.11;100.00
29839;BME280;18669;53.356;-1.464;2023-01-25T10:10:26;102010.94;;;10.20;100.00
29839;BME280;18669;53.356;-1.464;2023-01-25T10:12:55;102017.03;;;10.07;100.00
29839;BME280;18669;53.356;-1.464;2023-01-25T10:15:22;102023.22;;;10.24;100.00
29839;BME280;18669;53.356;-1.464;2023-01-25T10:18:32;102030.22;;;10.18;100.00
29839;BME280;18669;53.356;-1.464;2023-01-25T10:20:53;102052.13;;;10.15;100.00
29839;BME280;18669;53.356;-1.464;2023-01-25T10:26:26;102059.03;;;9.90;100.00
29839;BME280;18669;53.356;-1.464;2023-01-25T10:29:18;102065.06;;;9.75;100.00
29839;BME280;18669;53.356;-1.464;2023-01-25T10:31:50;102059.81;;;9.70;100.00
29839;BME280;18669;53.356;-1.464;2023-01-25T10:34:32;102057.22;;;9.78;100.00
29839;BME280;18669;53.356;-1.464;2023-01-25T10:37:20;102060.69;;;9.75;100.00
29839;BME280;18669;53.356;-1.464;2023-01-25T10:40:05;102051.13;;;9.85;100.00
29839;BME280;18669;53.356;-1.464;2023-01-25T10:43:01;102068.59;;;9.81;100.00
29839;BME280;18669;53.356;-1.464;2023-01-25T10:45:27;102066.88;;;9.82;100.00
29839;BME280;18669;53.356;-1.464;2023-01-25T10:48:05;102062.50;;;9.84;100.00
29839;BME280;18669;53.356;-1.464;2023-01-25T10:55:55;102059.88;;;9.84;100.00
29839;BME280;18669;53.356;-1.464;2023-01-25T10:58:34;102050.28;;;9.95;100.00
29839;BME280;18669;53.356;-1.464;2023-01-25T11:01:00;102046.72;;;9.82;100.00
29839;BME280;18669;53.356;-1.464;2023-01-25T11:03:40;102057.25;;;9.89;100.00
29839;BME280;18669;53.356;-1.464;2023-01-25T11:06:09;102049.38;;;9.84;100.00
29839;BME280;18669;53.356;-1.464;2023-01-25T11:08:40;102044.06;;;9.82;100.00
29839;BME280;18669;53.356;-1.464;2023-01-25T11:11:30;102040.56;;;9.79;100.00
29839;BME280;18669;53.356;-1.464;2023-01-25T11:13:57;102060.66;;;9.70;100.00
29839;BME280;18669;53.356;-1.464;2023-01-25T11:16:28;102051.06;;;9.76;100.00
29839;BME280;18669;53.356;-1.464;2023-01-25T11:18:56;102051.91;;;9.72;100.00
29839;BME280;18669;53.356;-1.464;2023-01-25T11:21:25;102062.41;;;9.72;100.00
29839;BME280;18669;53.356;-1.464;2023-01-25T11:28:24;102065.84;;;9.61;100.00
29839;BME280;18669;53.356;-1.464;2023-01-25T11:31:27;102052.69;;;9.58;100.00
29839;BME280;18669;53.356;-1.464;2023-01-25T11:34:57;102039.50;;;9.46;100.00
29839;BME280;18669;53.356;-1.464;2023-01-25T11:38:11;102031.59;;;9.43;100.00
29839;BME280;18669;53.356;-1.464;2023-01-25T11:41:09;102021.91;;;9.40;100.00
29839;BME280;18669;53.356;-1.464;2023-01-25T11:52:10;101976.44;;;9.47;100.00
29839;BME280;18669;53.356;-1.464;2023-01-25T11:54:48;101973.91;;;9.60;100.00
29839;BME280;18669;53.356;-1.464;2023-01-25T12:11:15;101934.56;;;9.89;100.00
29839;BME280;18669;53.356;-1.464;2023-01-25T12:13:59;101926.75;;;10.00;100.00
29839;BME280;18669;53.356;-1.464;2023-01-25T12:28:32;101921.47;;;10.05;100.00
29839;BME280;18669;53.356;-1.464;2023-01-25T12:31:11;101924.06;;;9.91;100.00
29839;BME280;18669;53.356;-1.464;2023-01-25T12:36:27;101913.53;;;9.89;100.00
29839;BME280;18669;53.356;-1.464;2023-01-25T12:41:45;101930.16;;;9.77;100.00
29839;BME280;18669;53.356;-1.464;2023-01-25T12:47:13;101931.06;;;9.78;100.00
29839;BME280;18669;53.356;-1.464;2023-01-25T12:50:00;101917.91;;;9.78;100.00
29839;BME280;18669;53.356;-1.464;2023-01-25T12:52:39;101918.78;;;9.78;100.00
29839;BME280;18669;53.356;-1.464;2023-01-25T12:55:12;101924.94;;;9.82;100.00
29839;BME280;18669;53.356;-1.464;2023-01-25T12:58:03;101914.47;;;9.96;100.00
29839;BME280;18669;53.356;-1.464;2023-01-25T13:03:16;101916.19;;;9.92;100.00
29839;BME280;18669;53.356;-1.464;2023-01-25T13:11:19;101914.38;;;9.73;100.00
29839;BME280;18669;53.356;-1.464;2023-01-25T13:13:46;101912.56;;;9.58;100.00
29839;BME280;18669;53.356;-1.464;2023-01-25T13:18:53;101897.66;;;9.50;100.00
29839;BME280;18669;53.356;-1.464;2023-01-25T13:21:47;101890.69;;;9.63;100.00
29839;BME280;18669;53.356;-1.464;2023-01-25T13:24:17;101903.78;;;9.57;100.00
29839;BME280;18669;53.356;-1.464;2023-01-25T13:26:57;101902.13;;;9.70;100.00
29839;BME280;18669;53.356;-1.464;2023-01-25T13:32:04;101889.91;;;9.86;100.00
29839;BME280;18669;53.356;-1.464;2023-01-25T13:37:27;101875.88;;;9.85;100.00
29839;BME280;18669;53.356;-1.464;2023-01-25T13:42:32;101868.00;;;9.89;100.00
29839;BME280;18669;53.356;-1.464;2023-01-25T13:45:02;101876.72;;;9.77;100.00
29839;BME280;18669;53.356;-1.464;2023-01-25T13:47:31;101856.56;;;9.80;100.00
29839;BME280;18669;53.356;-1.464;2023-01-25T13:50:24;101842.56;;;9.84;100.00
29839;BME280;18669;53.356;-1.464;2023-01-25T13:53:05;101851.31;;;9.76;100.00
29839;BME280;18669;53.356;-1.464;2023-01-25T13:55:44;101853.94;;;9.71;100.00
29839;BME280;18669;53.356;-1.464;2023-01-25T14:03:27;101839.91;;;9.66;100.00
29839;BME280;18669;53.356;-1.464;2023-01-25T14:05:56;101839.00;;;9.62;100.00
29839;BME280;18669;53.356;-1.464;2023-01-25T14:08:24;101836.41;;;9.61;100.00
29839;BME280;18669;53.356;-1.464;2023-01-25T14:10:53;101835.50;;;9.57;100.00
29839;BME280;18669;53.356;-1.464;2023-01-25T14:13:20;101829.34;;;9.50;100.00
29839;BME280;18669;53.356;-1.464;2023-01-25T14:15:59;101812.72;;;9.59;100.00
29839;BME280;18669;53.356;-1.464;2023-01-25T14:18:30;101815.38;;;9.62;100.00
29839;BME280;18669;53.356;-1.464;2023-01-25T14:21:17;101811.88;;;9.66;100.00
29839;BME280;18669;53.356;-1.464;2023-01-25T14:23:46;101804.84;;;9.62;100.00
29839;BME280;18669;53.356;-1.464;2023-01-25T14:26:17;101805.75;;;9.69;100.00
29839;BME280;18669;53.356;-1.464;2023-01-25T14:28:46;101821.50;;;9.72;100.00
29839;BME280;18669;53.356;-1.464;2023-01-25T14:31:19;101814.53;;;9.71;100.00
29839;BME280;18669;53.356;-1.464;2023-01-25T14:33:46;101812.75;;;9.68;100.00
29839;BME280;18669;53.356;-1.464;2023-01-25T14:36:20;101816.25;;;9.72;100.00
29839;BME280;18669;53.356;-1.464;2023-01-25T14:38:46;101812.78;;;9.70;100.00